Nykobing, Denmark
Current Conditions -  °F | °C
As of 9:50 AM on Wednesday 22 Oct 2014 (Local Time) from EKRK Reporting Station
Broken Clouds Broken Clouds  
Wind Chill: 12°   Ceiling: 4000
Heat Index: 12°   Visibility: 6mi
Dew Point: 11°   Wind: 7mph
Humidity: 94%   Direction: 70°ENE
Pressure: 29.62"   Gusts: NA
Location:  55.94°N, 11.65°E
Report Text: EKRK 220750Z AUTO 07006KT 030V090 9999NDV FEW020/// BKN040///12/11 Q1003
Loading
Personal Weather Stations






























Interactive Weather Map
Tropical Storm Tracking
New forecast layout! Learn more

10-Day Weather Forecast

Advertisements
Track Severe Weather on mobile